createdAt,value
2023-03-16T00:00:18.657Z,0.30
2023-03-16T00:02:45.608Z,0.30
2023-03-16T00:05:14.240Z,0.20
2023-03-16T00:07:44.620Z,0.20
2023-03-16T00:10:13.392Z,0.20
2023-03-16T00:12:40.295Z,0.20
2023-03-16T00:15:07.761Z,0.20
2023-03-16T00:17:34.865Z,0.20
2023-03-16T00:20:06.657Z,0.20
2023-03-16T00:22:36.321Z,0.20
2023-03-16T00:25:04.572Z,0.20
2023-03-16T00:27:31.578Z,0.20
2023-03-16T00:29:58.537Z,0.20
2023-03-16T00:32:32.092Z,0.10
2023-03-16T00:35:01.576Z,0.20
2023-03-16T00:37:29.144Z,0.20
2023-03-16T00:39:56.498Z,0.20
2023-03-16T00:42:27.784Z,0.20
2023-03-16T00:44:57.797Z,0.20
2023-03-16T00:47:31.286Z,0.20
2023-03-16T00:49:58.954Z,0.20
2023-03-16T00:52:27.626Z,0.20
2023-03-16T00:54:55.897Z,0.20
2023-03-16T00:57:25.361Z,0.20
2023-03-16T00:59:52.792Z,0.10
2023-03-16T01:02:23.816Z,0.20
2023-03-16T01:04:52.004Z,0.20
2023-03-16T01:07:19.572Z,0.10
2023-03-16T01:09:46.529Z,0.10
2023-03-16T01:12:19.254Z,0.10
2023-03-16T01:14:46.841Z,0.10
2023-03-16T01:17:15.498Z,0.10
2023-03-16T01:19:42.935Z,0.10
2023-03-16T01:22:11.737Z,0.00
2023-03-16T01:24:39.269Z,0.00
2023-03-16T01:27:07.091Z,0.00
2023-03-16T01:29:34.247Z,-0.10
2023-03-16T01:32:01.952Z,-0.10
2023-03-16T01:34:28.937Z,-0.10
2023-03-16T01:36:56.142Z,-0.10
2023-03-16T01:39:23.372Z,-0.10
2023-03-16T01:41:51.020Z,-0.10
2023-03-16T01:44:22.728Z,-0.10
2023-03-16T01:46:49.877Z,-0.10
2023-03-16T01:49:25.973Z,-0.20
2023-03-16T01:52:08.726Z,-0.10
2023-03-16T01:54:42.589Z,-0.20
2023-03-16T01:57:20.252Z,-0.20
2023-03-16T01:59:59.254Z,-0.20
2023-03-16T02:02:30.343Z,-0.10
2023-03-16T02:05:07.305Z,-0.20
2023-03-16T02:07:43.229Z,-0.20
2023-03-16T02:10:12.588Z,-0.30
2023-03-16T02:12:39.951Z,-0.10
2023-03-16T02:15:07.405Z,-0.10
2023-03-16T02:17:35.590Z,-0.10
2023-03-16T02:20:36.242Z,-0.10
2023-03-16T02:23:04.634Z,-0.10
2023-03-16T02:25:46.122Z,-0.20
2023-03-16T02:28:31.060Z,-0.20
2023-03-16T02:30:58.592Z,-0.20
2023-03-16T02:33:26.324Z,-0.20
2023-03-16T02:35:53.275Z,-0.20
2023-03-16T02:38:20.256Z,-0.30
2023-03-16T02:40:59.762Z,-0.30
2023-03-16T02:43:33.409Z,-0.30
2023-03-16T02:46:05.520Z,-0.30
2023-03-16T02:48:56.608Z,-0.30
2023-03-16T02:51:23.522Z,-0.30
2023-03-16T02:53:50.595Z,-0.40
2023-03-16T02:56:17.445Z,-0.40
2023-03-16T02:58:44.445Z,-0.40
2023-03-16T03:01:11.583Z,-0.40
2023-03-16T03:03:38.562Z,-0.40
2023-03-16T03:06:05.909Z,-0.40
2023-03-16T03:08:33.521Z,-0.40
2023-03-16T03:11:00.814Z,-0.50
2023-03-16T03:13:27.756Z,-0.50
2023-03-16T03:15:54.628Z,-0.50
2023-03-16T03:18:21.485Z,-0.50
2023-03-16T03:20:48.467Z,-0.50
2023-03-16T03:23:17.149Z,-0.50
2023-03-16T03:25:44.066Z,-0.50
2023-03-16T03:28:11.542Z,-0.50
2023-03-16T03:30:38.555Z,-0.50
2023-03-16T03:33:05.526Z,-0.50
2023-03-16T03:35:32.606Z,-0.50
2023-03-16T03:37:59.556Z,-0.50
2023-03-16T03:40:26.668Z,-0.50
2023-03-16T03:42:53.760Z,-0.50
2023-03-16T03:45:20.737Z,-0.50
2023-03-16T03:47:47.684Z,-0.50
2023-03-16T03:50:14.715Z,-0.50
2023-03-16T03:52:41.961Z,-0.50
2023-03-16T03:55:10.920Z,-0.50
2023-03-16T03:57:38.158Z,-0.50
2023-03-16T04:00:11.108Z,-0.50
2023-03-16T04:02:39.014Z,-0.50
2023-03-16T04:05:07.434Z,-0.50
2023-03-16T04:07:34.732Z,-0.50
2023-03-16T04:10:01.600Z,-0.50
2023-03-16T04:12:28.509Z,-0.60
2023-03-16T04:14:55.393Z,-0.60
2023-03-16T04:17:23.918Z,-0.60
2023-03-16T04:19:50.970Z,-0.50
2023-03-16T04:22:18.289Z,-0.50
2023-03-16T04:24:45.355Z,-0.50
2023-03-16T04:27:12.422Z,-0.50
2023-03-16T04:29:39.432Z,-0.40
2023-03-16T04:32:07.762Z,-0.40
2023-03-16T04:34:34.738Z,-0.40
2023-03-16T04:37:02.458Z,-0.50
2023-03-16T04:39:29.532Z,-0.50
2023-03-16T04:41:56.397Z,-0.50
2023-03-16T04:44:23.259Z,-0.60
2023-03-16T04:46:50.150Z,-0.60
2023-03-16T04:49:17.052Z,-0.50
2023-03-16T04:51:43.928Z,-0.60
2023-03-16T04:54:11.408Z,-0.50
2023-03-16T04:56:41.581Z,-0.50
2023-03-16T04:59:08.599Z,-0.60
2023-03-16T05:01:35.612Z,-0.60
2023-03-16T05:04:02.592Z,-0.60
2023-03-16T05:06:29.851Z,-0.60
2023-03-16T05:08:58.839Z,-0.60
2023-03-16T05:11:25.726Z,-0.60
2023-03-16T05:13:52.712Z,-0.50
2023-03-16T05:16:19.719Z,-0.50
2023-03-16T05:18:46.652Z,-0.50
2023-03-16T05:21:13.594Z,-0.50
2023-03-16T05:23:40.462Z,-0.50
2023-03-16T05:26:07.763Z,-0.50
2023-03-16T05:28:34.632Z,-0.40
2023-03-16T05:31:03.956Z,-0.30
2023-03-16T05:33:30.972Z,-0.30
2023-03-16T05:35:58.257Z,-0.30
2023-03-16T05:38:27.639Z,-0.20
2023-03-16T05:40:54.896Z,-0.30
2023-03-16T05:43:22.369Z,-0.30
2023-03-16T05:45:49.753Z,-0.30
2023-03-16T05:48:16.682Z,-0.30
2023-03-16T05:50:43.876Z,-0.30
2023-03-16T05:53:10.883Z,-0.20
2023-03-16T05:55:37.779Z,-0.20
2023-03-16T05:58:05.810Z,-0.20
2023-03-16T06:00:33.135Z,-0.20
2023-03-16T06:03:01.522Z,-0.10
2023-03-16T06:05:29.659Z,-0.10
2023-03-16T06:07:56.553Z,-0.10
2023-03-16T06:10:23.975Z,-0.10
2023-03-16T06:12:51.634Z,-0.10
2023-03-16T06:15:18.843Z,-0.10
2023-03-16T06:17:45.741Z,-0.10
2023-03-16T06:20:13.769Z,0.00
2023-03-16T06:22:42.547Z,0.00
2023-03-16T06:25:11.110Z,0.00
2023-03-16T06:27:38.643Z,0.10
2023-03-16T06:30:08.740Z,0.00
2023-03-16T06:32:36.409Z,0.10
2023-03-16T06:35:03.714Z,0.00
2023-03-16T06:37:31.369Z,0.10
2023-03-16T06:39:58.345Z,0.00
2023-03-16T06:42:25.584Z,0.10
2023-03-16T06:44:52.936Z,0.10
2023-03-16T06:47:20.646Z,0.20
2023-03-16T06:49:47.733Z,0.20
2023-03-16T06:52:15.127Z,0.20
2023-03-16T06:54:42.050Z,0.20
2023-03-16T06:57:09.284Z,0.30
2023-03-16T06:59:36.300Z,0.20
2023-03-16T07:02:03.284Z,0.40
2023-03-16T07:04:30.244Z,0.60
2023-03-16T07:06:57.382Z,0.60
2023-03-16T07:09:24.285Z,0.60
2023-03-16T07:11:53.088Z,0.60
2023-03-16T07:14:20.113Z,0.50
2023-03-16T07:16:47.029Z,0.50
2023-03-16T07:19:13.930Z,0.40
2023-03-16T07:21:42.059Z,0.40
2023-03-16T07:24:10.471Z,0.50
2023-03-16T07:26:37.741Z,0.50
2023-03-16T07:29:06.460Z,0.60
2023-03-16T07:31:34.779Z,0.80
2023-03-16T07:34:02.534Z,0.70
2023-03-16T07:36:29.900Z,0.70
2023-03-16T07:38:56.771Z,0.80
2023-03-16T07:41:24.809Z,0.80
2023-03-16T07:43:52.350Z,0.70
2023-03-16T07:46:19.329Z,0.80
2023-03-16T07:48:46.218Z,0.80
2023-03-16T07:51:14.120Z,0.80
2023-03-16T07:53:43.232Z,0.80
2023-03-16T07:56:10.362Z,0.90
2023-03-16T07:58:37.455Z,0.90
2023-03-16T08:01:04.380Z,1.00
2023-03-16T08:03:32.161Z,0.90
2023-03-16T08:05:59.693Z,0.90
2023-03-16T08:08:26.622Z,0.90
2023-03-16T08:10:56.207Z,0.90
2023-03-16T08:13:23.780Z,0.90
2023-03-16T08:16:02.200Z,1.00
2023-03-16T08:18:30.250Z,1.00
2023-03-16T08:20:58.645Z,1.00
2023-03-16T08:23:26.097Z,1.00
2023-03-16T08:25:57.583Z,0.90
2023-03-16T08:28:26.059Z,1.00
2023-03-16T08:30:55.640Z,1.10
2023-03-16T08:33:23.527Z,1.10
2023-03-16T08:35:53.420Z,1.10
2023-03-16T08:38:21.677Z,1.10
2023-03-16T08:40:50.721Z,1.10
2023-03-16T08:43:19.154Z,1.20
2023-03-16T08:45:47.124Z,1.20
2023-03-16T08:48:14.959Z,1.20
2023-03-16T08:50:44.238Z,1.20
2023-03-16T08:53:13.677Z,1.10
2023-03-16T08:55:44.131Z,1.10
2023-03-16T08:58:12.353Z,1.20
2023-03-16T09:00:40.060Z,1.20
2023-03-16T09:03:07.495Z,1.20
2023-03-16T09:05:34.805Z,1.30
2023-03-16T09:08:01.884Z,1.30
2023-03-16T09:10:29.137Z,1.30
2023-03-16T09:12:56.859Z,1.30
2023-03-16T09:15:23.798Z,1.40
2023-03-16T09:17:51.215Z,1.40
2023-03-16T09:20:22.866Z,1.50
2023-03-16T09:22:54.699Z,1.50
2023-03-16T09:25:21.888Z,1.50
2023-03-16T09:27:48.898Z,1.50
2023-03-16T09:30:17.114Z,1.60
2023-03-16T09:32:45.124Z,1.60
2023-03-16T09:35:12.074Z,1.60
2023-03-16T09:37:45.129Z,1.70
2023-03-16T09:40:25.672Z,1.70
2023-03-16T09:43:04.188Z,1.70
2023-03-16T09:46:06.647Z,1.70
2023-03-16T09:48:35.998Z,1.70
2023-03-16T09:51:06.633Z,1.80
2023-03-16T09:53:39.416Z,1.80
2023-03-16T09:56:46.456Z,1.90
2023-03-16T09:59:17.460Z,1.80
2023-03-16T10:01:44.848Z,1.80
2023-03-16T10:04:27.990Z,1.90
2023-03-16T10:07:09.890Z,1.90
2023-03-16T10:09:46.004Z,1.90
2023-03-16T10:12:14.758Z,2.00
2023-03-16T10:14:54.149Z,2.10
2023-03-16T10:17:30.992Z,2.20
2023-03-16T10:20:04.828Z,2.30
2023-03-16T10:22:39.321Z,2.40
2023-03-16T10:25:40.219Z,2.30
2023-03-16T10:28:07.511Z,2.30
2023-03-16T10:30:38.712Z,2.40
2023-03-16T10:33:28.027Z,2.40
2023-03-16T10:36:37.912Z,2.40
2023-03-16T10:39:11.986Z,2.70
2023-03-16T10:41:58.193Z,2.70
2023-03-16T10:44:28.623Z,2.70
2023-03-16T10:47:07.446Z,2.80
2023-03-16T10:49:44.595Z,3.00
2023-03-16T10:52:23.964Z,2.90
2023-03-16T10:54:55.078Z,3.10
2023-03-16T10:57:35.577Z,2.90
2023-03-16T11:00:21.019Z,3.10
2023-03-16T11:02:55.773Z,3.20
2023-03-16T11:05:31.265Z,3.20
2023-03-16T11:08:18.811Z,3.20
2023-03-16T11:10:56.180Z,3.40
2023-03-16T11:13:24.832Z,3.50
2023-03-16T11:16:23.151Z,3.50
2023-03-16T11:18:57.482Z,3.60
2023-03-16T11:21:46.832Z,3.70
2023-03-16T11:24:25.865Z,3.80
2023-03-16T11:26:58.740Z,3.80
2023-03-16T11:30:01.922Z,4.00
2023-03-16T11:32:39.171Z,4.20
2023-03-16T11:35:19.702Z,4.50
2023-03-16T11:38:16.905Z,5.10
2023-03-16T11:41:18.454Z,5.00
2023-03-16T11:43:57.050Z,5.50
2023-03-16T11:46:31.588Z,6.00
2023-03-16T11:49:15.923Z,6.60
2023-03-16T11:51:51.798Z,6.60
2023-03-16T11:54:37.484Z,6.70
2023-03-16T11:57:31.487Z,6.40
2023-03-16T12:00:22.844Z,6.10
2023-03-16T12:02:56.295Z,6.60
2023-03-16T12:05:30.523Z,8.20
2023-03-16T12:08:24.711Z,9.60
2023-03-16T12:11:17.690Z,10.50
2023-03-16T12:14:15.806Z,10.40
2023-03-16T12:16:54.002Z,9.30
2023-03-16T12:19:29.121Z,8.30
2023-03-16T12:22:06.134Z,8.00
2023-03-16T12:24:42.756Z,8.00
2023-03-16T12:27:17.688Z,8.10
2023-03-16T12:30:03.995Z,7.90
2023-03-16T12:32:47.082Z,8.00
2023-03-16T12:35:31.730Z,7.90
2023-03-16T12:38:23.411Z,7.80
2023-03-16T12:41:20.580Z,7.10
2023-03-16T12:43:59.768Z,7.20
2023-03-16T12:46:53.629Z,7.10
2023-03-16T12:49:21.319Z,7.10
2023-03-16T12:51:59.733Z,7.20
2023-03-16T12:54:27.652Z,7.20
2023-03-16T12:57:02.820Z,6.80
2023-03-16T12:59:40.597Z,6.80
2023-03-16T13:02:15.786Z,6.40
2023-03-16T13:04:45.839Z,5.90
2023-03-16T13:07:20.194Z,5.70
2023-03-16T13:09:52.587Z,5.60
2023-03-16T13:12:28.458Z,5.70
2023-03-16T13:14:57.548Z,5.70
2023-03-16T13:17:42.837Z,5.70
2023-03-16T13:20:21.000Z,5.70
2023-03-16T13:23:22.651Z,5.60
2023-03-16T13:26:03.432Z,5.80
2023-03-16T13:28:33.568Z,5.90
2023-03-16T13:31:01.540Z,5.80
2023-03-16T13:33:31.857Z,5.70
2023-03-16T13:36:00.276Z,5.70
2023-03-16T13:38:28.797Z,5.40
2023-03-16T13:40:58.785Z,5.40
2023-03-16T13:43:32.912Z,5.50
2023-03-16T13:46:00.132Z,5.40
2023-03-16T13:48:27.040Z,5.50
2023-03-16T13:50:58.887Z,5.40
2023-03-16T13:53:33.260Z,5.40
2023-03-16T13:56:02.724Z,5.30
2023-03-16T13:58:36.281Z,5.30
2023-03-16T14:01:11.953Z,5.20
2023-03-16T14:03:42.406Z,5.30
2023-03-16T14:06:26.544Z,5.40
2023-03-16T14:08:59.138Z,5.50
2023-03-16T14:11:27.237Z,5.50
2023-03-16T14:13:56.379Z,5.40
2023-03-16T14:16:25.642Z,5.50
2023-03-16T14:19:01.082Z,5.50
2023-03-16T14:21:31.591Z,5.60
2023-03-16T14:24:00.343Z,5.70
2023-03-16T14:26:27.291Z,5.60
2023-03-16T14:29:18.755Z,5.50
2023-03-16T14:31:46.134Z,5.30
2023-03-16T14:34:25.435Z,5.30
2023-03-16T14:36:52.988Z,5.10
2023-03-16T14:39:21.673Z,5.10
2023-03-16T14:41:51.396Z,5.10
2023-03-16T14:44:38.545Z,5.00
2023-03-16T14:47:07.280Z,5.00
2023-03-16T14:49:37.537Z,5.10
2023-03-16T14:52:23.377Z,5.10
2023-03-16T14:54:51.607Z,5.10
2023-03-16T14:57:19.627Z,5.20
2023-03-16T14:59:46.909Z,5.10
2023-03-16T15:02:18.807Z,5.00
2023-03-16T15:04:46.988Z,4.90
2023-03-16T15:07:26.906Z,4.80
2023-03-16T15:09:55.633Z,4.70
2023-03-16T15:12:25.169Z,4.60
2023-03-16T15:15:10.845Z,4.50
2023-03-16T15:17:37.785Z,4.50
2023-03-16T15:20:05.408Z,4.50
2023-03-16T15:22:37.254Z,4.40
2023-03-16T15:25:20.939Z,4.50
2023-03-16T15:27:48.396Z,4.40
2023-03-16T15:30:21.857Z,4.40
2023-03-16T15:32:49.078Z,4.50
2023-03-16T15:35:16.829Z,4.40
2023-03-16T15:37:44.709Z,4.50
2023-03-16T15:40:39.591Z,4.50
2023-03-16T15:43:11.419Z,4.40
2023-03-16T15:45:38.660Z,4.50
2023-03-16T15:48:06.015Z,4.50
2023-03-16T15:50:33.425Z,4.50
2023-03-16T15:53:05.950Z,4.50
2023-03-16T15:55:35.335Z,4.50
2023-03-16T15:58:03.687Z,4.40
2023-03-16T16:00:39.727Z,4.50
2023-03-16T16:03:10.094Z,4.40
2023-03-16T16:05:38.101Z,4.40
2023-03-16T16:08:05.179Z,4.40
2023-03-16T16:10:32.449Z,4.10
2023-03-16T16:13:00.150Z,3.80
2023-03-16T16:15:33.812Z,3.70
2023-03-16T16:18:20.330Z,3.60
2023-03-16T16:20:48.439Z,3.40
2023-03-16T16:23:15.422Z,3.20
2023-03-16T16:25:42.642Z,3.10
2023-03-16T16:28:19.559Z,3.00
2023-03-16T16:30:47.759Z,2.80
2023-03-16T16:33:32.608Z,2.60
2023-03-16T16:36:02.014Z,2.50
2023-03-16T16:38:29.401Z,2.40
2023-03-16T16:40:59.630Z,2.40
2023-03-16T16:43:45.569Z,2.30
2023-03-16T16:46:16.732Z,2.20
2023-03-16T16:48:46.978Z,2.10
2023-03-16T16:51:26.741Z,2.10
2023-03-16T16:53:55.835Z,2.00
2023-03-16T16:56:35.897Z,1.90
2023-03-16T16:59:33.881Z,1.90
2023-03-16T17:02:21.741Z,1.90
2023-03-16T17:04:50.897Z,1.90
2023-03-16T17:07:18.160Z,2.00
2023-03-16T17:09:45.203Z,1.90
2023-03-16T17:12:22.795Z,1.90
2023-03-16T17:14:50.799Z,1.90
2023-03-16T17:17:18.797Z,1.80
2023-03-16T17:19:47.019Z,1.70
2023-03-16T17:22:25.273Z,1.70
2023-03-16T17:24:53.298Z,1.70
2023-03-16T17:27:26.240Z,1.70
2023-03-16T17:29:54.010Z,1.70
2023-03-16T17:32:25.664Z,1.60
2023-03-16T17:34:52.722Z,1.60
2023-03-16T17:37:22.358Z,1.60
2023-03-16T17:39:49.623Z,1.60
2023-03-16T17:42:18.947Z,1.60
2023-03-16T17:44:48.718Z,1.60
2023-03-16T17:47:24.372Z,1.60
2023-03-16T17:49:52.136Z,1.50
2023-03-16T17:52:25.486Z,1.50
2023-03-16T17:54:53.860Z,1.50
2023-03-16T17:57:32.716Z,1.50
2023-03-16T18:00:01.264Z,1.50
2023-03-16T18:02:46.426Z,1.50
2023-03-16T18:05:19.831Z,1.50
2023-03-16T18:07:47.177Z,1.50
2023-03-16T18:10:16.046Z,1.50
2023-03-16T18:12:44.257Z,1.40
2023-03-16T18:15:16.800Z,1.50
2023-03-16T18:17:44.720Z,1.40
2023-03-16T18:20:34.571Z,1.50
2023-03-16T18:23:10.525Z,1.50
2023-03-16T18:25:39.360Z,1.50
2023-03-16T18:28:13.917Z,1.40
2023-03-16T18:30:43.695Z,1.40
2023-03-16T18:33:31.660Z,1.40
2023-03-16T18:36:08.134Z,1.40
2023-03-16T18:38:39.364Z,1.40
2023-03-16T18:41:21.054Z,1.40
2023-03-16T18:43:48.696Z,1.50
2023-03-16T18:46:28.151Z,1.40
2023-03-16T18:48:57.688Z,1.40
2023-03-16T18:51:25.700Z,1.50
2023-03-16T18:53:53.564Z,1.50
2023-03-16T18:56:27.226Z,1.50
2023-03-16T18:58:55.459Z,1.40
2023-03-16T19:01:26.059Z,1.40
2023-03-16T19:03:53.938Z,1.40
2023-03-16T19:06:41.135Z,1.40
2023-03-16T19:09:13.646Z,1.40
2023-03-16T19:11:44.674Z,1.40
2023-03-16T19:14:24.939Z,1.40
2023-03-16T19:16:53.008Z,1.40
2023-03-16T19:19:24.398Z,1.40
2023-03-16T19:21:58.912Z,1.40
2023-03-16T19:24:28.132Z,1.40
2023-03-16T19:26:56.595Z,1.40
2023-03-16T19:29:34.179Z,1.50
2023-03-16T19:32:02.260Z,1.40
2023-03-16T19:34:29.511Z,1.40
2023-03-16T19:36:56.515Z,1.50
2023-03-16T19:39:23.489Z,1.50
2023-03-16T19:41:56.557Z,1.40
2023-03-16T19:44:26.428Z,1.50
2023-03-16T19:46:55.024Z,1.50
2023-03-16T19:49:27.122Z,1.40
2023-03-16T19:51:55.895Z,1.40
2023-03-16T19:54:26.817Z,1.40
2023-03-16T19:56:57.538Z,1.40
2023-03-16T19:59:29.204Z,1.40
2023-03-16T20:01:56.167Z,1.40
2023-03-16T20:04:25.980Z,1.40
2023-03-16T20:06:54.049Z,1.50
2023-03-16T20:09:22.266Z,1.40
2023-03-16T20:11:50.152Z,1.50
2023-03-16T20:14:33.606Z,1.50
2023-03-16T20:17:01.106Z,1.50
2023-03-16T20:19:28.664Z,1.40
2023-03-16T20:21:55.862Z,1.50
2023-03-16T20:24:23.344Z,1.50
2023-03-16T20:26:51.557Z,1.50
2023-03-16T20:29:33.271Z,1.40
2023-03-16T20:32:01.379Z,1.50
2023-03-16T20:34:31.289Z,1.50
2023-03-16T20:36:58.887Z,1.50
2023-03-16T20:39:26.045Z,1.50
2023-03-16T20:41:53.162Z,1.50
2023-03-16T20:44:23.668Z,1.60
2023-03-16T20:46:50.617Z,1.50
2023-03-16T20:49:25.361Z,1.60
2023-03-16T20:51:52.469Z,1.60
2023-03-16T20:54:19.348Z,1.60
2023-03-16T20:56:46.924Z,1.60
2023-03-16T20:59:24.917Z,1.50
2023-03-16T21:01:54.735Z,1.60
2023-03-16T21:04:27.614Z,1.50
2023-03-16T21:06:55.773Z,1.50
2023-03-16T21:09:22.718Z,1.50
2023-03-16T21:11:49.921Z,1.50
2023-03-16T21:14:22.208Z,1.50
2023-03-16T21:16:50.197Z,1.40
2023-03-16T21:19:23.078Z,1.40
2023-03-16T21:21:50.900Z,1.40
2023-03-16T21:24:17.942Z,1.50
2023-03-16T21:26:47.530Z,1.50
2023-03-16T21:29:17.934Z,1.60
2023-03-16T21:31:44.956Z,1.70
2023-03-16T21:34:28.052Z,1.60
2023-03-16T21:36:54.910Z,1.50
2023-03-16T21:39:25.219Z,1.40
2023-03-16T21:41:53.667Z,1.50
2023-03-16T21:44:20.841Z,1.60
2023-03-16T21:46:47.986Z,1.70
2023-03-16T21:49:15.965Z,1.80
2023-03-16T21:51:43.456Z,1.70
2023-03-16T21:54:17.016Z,1.60
2023-03-16T21:56:44.433Z,1.70
2023-03-16T21:59:11.903Z,1.60
2023-03-16T22:01:50.884Z,1.70
2023-03-16T22:04:21.761Z,1.70
2023-03-16T22:06:48.689Z,1.80
2023-03-16T22:09:20.688Z,1.80
2023-03-16T22:11:47.660Z,1.80
2023-03-16T22:14:14.583Z,1.70
2023-03-16T22:16:42.035Z,1.70
2023-03-16T22:19:13.507Z,1.60
2023-03-16T22:21:43.850Z,1.70
2023-03-16T22:24:19.235Z,1.60
2023-03-16T22:26:47.645Z,1.50
2023-03-16T22:29:25.523Z,1.50
2023-03-16T22:31:56.140Z,1.50
2023-03-16T22:34:50.525Z,1.50
2023-03-16T22:37:24.028Z,1.50
2023-03-16T22:39:51.349Z,1.40
2023-03-16T22:42:29.071Z,1.40
2023-03-16T22:44:56.616Z,1.40
2023-03-16T22:47:26.488Z,1.50
2023-03-16T22:49:53.965Z,1.60
2023-03-16T22:52:25.655Z,1.50
2023-03-16T22:54:53.090Z,1.60
2023-03-16T22:57:20.352Z,1.60
2023-03-16T22:59:48.277Z,1.60
2023-03-16T23:02:16.362Z,1.60
2023-03-16T23:04:44.593Z,1.60
2023-03-16T23:07:13.346Z,1.60
2023-03-16T23:09:40.697Z,1.60
2023-03-16T23:12:26.199Z,1.60
2023-03-16T23:14:53.148Z,1.60
2023-03-16T23:17:25.008Z,1.60
2023-03-16T23:19:52.047Z,1.60
2023-03-16T23:22:18.891Z,1.60
2023-03-16T23:24:45.884Z,1.60
2023-03-16T23:27:19.192Z,1.60
2023-03-16T23:29:46.764Z,1.60
2023-03-16T23:32:15.553Z,1.60
2023-03-16T23:34:42.474Z,1.60
2023-03-16T23:37:09.455Z,1.60
2023-03-16T23:39:36.676Z,1.60
2023-03-16T23:42:04.690Z,1.60
2023-03-16T23:44:31.691Z,1.60
2023-03-16T23:46:59.573Z,1.60
2023-03-16T23:49:32.921Z,1.60
2023-03-16T23:52:01.865Z,1.60
2023-03-16T23:54:31.398Z,1.60
2023-03-16T23:56:58.671Z,1.60
2023-03-16T23:59:26.771Z,1.50
